sensor_id;sensor_type;location;lat;lon;timestamp;temperature;humidity
18105;DHT22;9179;50.968;3.134;2024-02-26T00:00:25;8.00;99.90
18105;DHT22;9179;50.968;3.134;2024-02-26T00:02:52;8.00;99.90
18105;DHT22;9179;50.968;3.134;2024-02-26T00:05:20;8.00;99.90
18105;DHT22;9179;50.968;3.134;2024-02-26T00:07:47;8.00;99.90
18105;DHT22;9179;50.968;3.134;2024-02-26T00:10:15;7.90;99.90
18105;DHT22;9179;50.968;3.134;2024-02-26T00:12:42;7.90;99.90
18105;DHT22;9179;50.968;3.134;2024-02-26T00:15:10;7.90;99.90
18105;DHT22;9179;50.968;3.134;2024-02-26T00:17:37;7.90;99.90
18105;DHT22;9179;50.968;3.134;2024-02-26T00:20:05;7.80;99.90
18105;DHT22;9179;50.968;3.134;2024-02-26T00:22:35;7.90;99.90
18105;DHT22;9179;50.968;3.134;2024-02-26T00:25:03;7.90;99.90
18105;DHT22;9179;50.968;3.134;2024-02-26T00:27:30;7.90;99.90
18105;DHT22;9179;50.968;3.134;2024-02-26T00:29:57;7.90;99.90
18105;DHT22;9179;50.968;3.134;2024-02-26T00:32:24;7.90;99.90
18105;DHT22;9179;50.968;3.134;2024-02-26T00:34:51;7.80;99.90
18105;DHT22;9179;50.968;3.134;2024-02-26T00:37:19;7.80;99.90
18105;DHT22;9179;50.968;3.134;2024-02-26T00:39:47;7.80;99.90
18105;DHT22;9179;50.968;3.134;2024-02-26T00:42:14;7.80;99.90
18105;DHT22;9179;50.968;3.134;2024-02-26T00:44:41;7.80;99.90
18105;DHT22;9179;50.968;3.134;2024-02-26T00:47:08;7.80;99.90
18105;DHT22;9179;50.968;3.134;2024-02-26T00:49:34;7.80;99.90
18105;DHT22;9179;50.968;3.134;2024-02-26T00:52:01;7.70;99.90
18105;DHT22;9179;50.968;3.134;2024-02-26T00:54:28;7.60;99.90
18105;DHT22;9179;50.968;3.134;2024-02-26T00:56:57;7.70;99.90
18105;DHT22;9179;50.968;3.134;2024-02-26T00:59:24;7.80;99.90
18105;DHT22;9179;50.968;3.134;2024-02-26T01:01:51;7.80;99.90
18105;DHT22;9179;50.968;3.134;2024-02-26T01:04:18;7.70;99.90
18105;DHT22;9179;50.968;3.134;2024-02-26T01:06:45;7.70;99.90
18105;DHT22;9179;50.968;3.134;2024-02-26T01:09:12;7.70;99.90
18105;DHT22;9179;50.968;3.134;2024-02-26T01:11:38;7.70;99.90
18105;DHT22;9179;50.968;3.134;2024-02-26T01:14:07;7.80;99.90
18105;DHT22;9179;50.968;3.134;2024-02-26T01:16:34;7.80;99.90
18105;DHT22;9179;50.968;3.134;2024-02-26T01:19:01;7.80;99.90
18105;DHT22;9179;50.968;3.134;2024-02-26T01:21:28;7.70;99.90
18105;DHT22;9179;50.968;3.134;2024-02-26T01:23:55;7.80;99.90
18105;DHT22;9179;50.968;3.134;2024-02-26T01:26:22;7.80;99.90
18105;DHT22;9179;50.968;3.134;2024-02-26T01:28:49;7.80;99.90
18105;DHT22;9179;50.968;3.134;2024-02-26T01:31:18;7.80;99.90
18105;DHT22;9179;50.968;3.134;2024-02-26T01:33:44;7.70;99.90
18105;DHT22;9179;50.968;3.134;2024-02-26T01:36:11;7.80;99.90
18105;DHT22;9179;50.968;3.134;2024-02-26T01:38:38;7.80;99.90
18105;DHT22;9179;50.968;3.134;2024-02-26T01:41:05;7.70;99.90
18105;DHT22;9179;50.968;3.134;2024-02-26T01:43:32;7.70;99.90
18105;DHT22;9179;50.968;3.134;2024-02-26T01:45:59;7.60;99.90
18105;DHT22;9179;50.968;3.134;2024-02-26T01:48:28;7.80;99.90
18105;DHT22;9179;50.968;3.134;2024-02-26T01:50:55;7.80;99.90
18105;DHT22;9179;50.968;3.134;2024-02-26T01:53:22;7.80;99.90
18105;DHT22;9179;50.968;3.134;2024-02-26T01:55:50;7.80;99.90
18105;DHT22;9179;50.968;3.134;2024-02-26T01:58:17;7.80;99.90
18105;DHT22;9179;50.968;3.134;2024-02-26T02:00:44;7.80;99.90
18105;DHT22;9179;50.968;3.134;2024-02-26T02:03:11;7.80;99.90
18105;DHT22;9179;50.968;3.134;2024-02-26T02:05:39;7.80;99.90
18105;DHT22;9179;50.968;3.134;2024-02-26T02:08:08;7.80;99.90
18105;DHT22;9179;50.968;3.134;2024-02-26T02:10:35;7.80;99.90
18105;DHT22;9179;50.968;3.134;2024-02-26T02:13:02;7.70;99.90
18105;DHT22;9179;50.968;3.134;2024-02-26T02:15:29;7.70;99.90
18105;DHT22;9179;50.968;3.134;2024-02-26T02:17:56;7.70;99.90
18105;DHT22;9179;50.968;3.134;2024-02-26T02:20:32;7.60;99.90
18105;DHT22;9179;50.968;3.134;2024-02-26T02:22:59;7.70;99.90
18105;DHT22;9179;50.968;3.134;2024-02-26T02:25:26;7.70;99.90
18105;DHT22;9179;50.968;3.134;2024-02-26T02:27:54;7.60;99.90
18105;DHT22;9179;50.968;3.134;2024-02-26T02:30:24;7.60;99.90
18105;DHT22;9179;50.968;3.134;2024-02-26T02:32:52;7.60;99.90
18105;DHT22;9179;50.968;3.134;2024-02-26T02:35:19;7.50;99.90
18105;DHT22;9179;50.968;3.134;2024-02-26T02:37:48;7.50;99.90
18105;DHT22;9179;50.968;3.134;2024-02-26T02:40:15;7.40;99.90
18105;DHT22;9179;50.968;3.134;2024-02-26T02:42:42;7.50;99.90
18105;DHT22;9179;50.968;3.134;2024-02-26T02:45:09;7.50;99.90
18105;DHT22;9179;50.968;3.134;2024-02-26T02:47:36;7.40;99.90
18105;DHT22;9179;50.968;3.134;2024-02-26T02:50:05;7.30;99.90
18105;DHT22;9179;50.968;3.134;2024-02-26T02:52:32;7.40;99.90
18105;DHT22;9179;50.968;3.134;2024-02-26T02:55:00;7.40;99.90
18105;DHT22;9179;50.968;3.134;2024-02-26T02:57:27;7.50;99.90
18105;DHT22;9179;50.968;3.134;2024-02-26T02:59:55;7.50;99.90
18105;DHT22;9179;50.968;3.134;2024-02-26T03:02:22;7.60;99.90
18105;DHT22;9179;50.968;3.134;2024-02-26T03:04:50;7.60;99.90
18105;DHT22;9179;50.968;3.134;2024-02-26T03:07:17;7.60;99.90
18105;DHT22;9179;50.968;3.134;2024-02-26T03:09:44;7.50;99.90
18105;DHT22;9179;50.968;3.134;2024-02-26T03:12:12;7.50;99.90
18105;DHT22;9179;50.968;3.134;2024-02-26T03:14:39;7.50;99.90
18105;DHT22;9179;50.968;3.134;2024-02-26T03:17:06;7.60;99.90
18105;DHT22;9179;50.968;3.134;2024-02-26T03:19:33;7.60;99.90
18105;DHT22;9179;50.968;3.134;2024-02-26T03:22:00;7.40;99.90
18105;DHT22;9179;50.968;3.134;2024-02-26T03:24:27;7.50;99.90
18105;DHT22;9179;50.968;3.134;2024-02-26T03:26:54;7.50;99.90
18105;DHT22;9179;50.968;3.134;2024-02-26T03:29:23;7.60;99.90
18105;DHT22;9179;50.968;3.134;2024-02-26T03:31:50;7.50;99.90
18105;DHT22;9179;50.968;3.134;2024-02-26T03:34:17;7.70;99.90
18105;DHT22;9179;50.968;3.134;2024-02-26T03:36:45;7.60;99.90
18105;DHT22;9179;50.968;3.134;2024-02-26T03:39:12;7.60;99.90
18105;DHT22;9179;50.968;3.134;2024-02-26T03:41:39;7.60;99.90
18105;DHT22;9179;50.968;3.134;2024-02-26T03:44:06;7.50;99.90
18105;DHT22;9179;50.968;3.134;2024-02-26T03:46:34;7.50;99.90
18105;DHT22;9179;50.968;3.134;2024-02-26T03:49:01;7.60;99.90
18105;DHT22;9179;50.968;3.134;2024-02-26T03:51:28;7.60;99.90
18105;DHT22;9179;50.968;3.134;2024-02-26T03:53:57;7.60;99.90
18105;DHT22;9179;50.968;3.134;2024-02-26T03:56:24;7.50;99.90
18105;DHT22;9179;50.968;3.134;2024-02-26T03:58:52;7.50;99.90
18105;DHT22;9179;50.968;3.134;2024-02-26T04:01:18;7.50;99.90
18105;DHT22;9179;50.968;3.134;2024-02-26T04:03:47;7.50;99.90
18105;DHT22;9179;50.968;3.134;2024-02-26T04:06:14;7.50;99.90
18105;DHT22;9179;50.968;3.134;2024-02-26T04:08:43;7.40;99.90
18105;DHT22;9179;50.968;3.134;2024-02-26T04:11:10;7.30;99.90
18105;DHT22;9179;50.968;3.134;2024-02-26T04:13:37;7.40;99.90
18105;DHT22;9179;50.968;3.134;2024-02-26T04:16:05;7.40;99.90
18105;DHT22;9179;50.968;3.134;2024-02-26T04:18:32;7.30;99.90
18105;DHT22;9179;50.968;3.134;2024-02-26T04:21:01;7.30;99.90
18105;DHT22;9179;50.968;3.134;2024-02-26T04:23:27;7.20;99.90
18105;DHT22;9179;50.968;3.134;2024-02-26T04:25:54;7.20;99.90
18105;DHT22;9179;50.968;3.134;2024-02-26T04:28:21;7.30;99.90
18105;DHT22;9179;50.968;3.134;2024-02-26T04:30:51;7.30;99.90
18105;DHT22;9179;50.968;3.134;2024-02-26T04:33:18;7.30;99.90
18105;DHT22;9179;50.968;3.134;2024-02-26T04:35:45;7.30;99.90
18105;DHT22;9179;50.968;3.134;2024-02-26T04:38:13;7.30;99.90
18105;DHT22;9179;50.968;3.134;2024-02-26T04:40:40;7.40;99.90
18105;DHT22;9179;50.968;3.134;2024-02-26T04:43:07;7.40;99.90
18105;DHT22;9179;50.968;3.134;2024-02-26T04:45:34;7.50;99.90
18105;DHT22;9179;50.968;3.134;2024-02-26T04:48:01;7.40;99.90
18105;DHT22;9179;50.968;3.134;2024-02-26T04:50:28;7.50;99.90
18105;DHT22;9179;50.968;3.134;2024-02-26T04:52:55;7.50;99.90
18105;DHT22;9179;50.968;3.134;2024-02-26T04:55:23;7.40;99.90
18105;DHT22;9179;50.968;3.134;2024-02-26T04:57:50;7.30;99.90
18105;DHT22;9179;50.968;3.134;2024-02-26T05:00:17;7.20;99.90
18105;DHT22;9179;50.968;3.134;2024-02-26T05:02:44;7.30;99.90
18105;DHT22;9179;50.968;3.134;2024-02-26T05:05:11;7.30;99.90
18105;DHT22;9179;50.968;3.134;2024-02-26T05:07:42;7.30;99.90
18105;DHT22;9179;50.968;3.134;2024-02-26T05:10:09;7.20;99.90
18105;DHT22;9179;50.968;3.134;2024-02-26T05:12:37;7.20;99.90
18105;DHT22;9179;50.968;3.134;2024-02-26T05:15:07;7.30;99.90
18105;DHT22;9179;50.968;3.134;2024-02-26T05:17:34;7.30;99.90
18105;DHT22;9179;50.968;3.134;2024-02-26T05:20:00;7.40;99.90
18105;DHT22;9179;50.968;3.134;2024-02-26T05:22:28;7.30;99.90
18105;DHT22;9179;50.968;3.134;2024-02-26T05:24:55;7.30;99.90
18105;DHT22;9179;50.968;3.134;2024-02-26T05:27:22;7.40;99.90
18105;DHT22;9179;50.968;3.134;2024-02-26T05:29:51;7.40;99.90
18105;DHT22;9179;50.968;3.134;2024-02-26T05:32:19;7.20;99.90
18105;DHT22;9179;50.968;3.134;2024-02-26T05:34:46;7.30;99.90
18105;DHT22;9179;50.968;3.134;2024-02-26T05:37:13;7.30;99.90
18105;DHT22;9179;50.968;3.134;2024-02-26T05:39:40;7.40;99.90
18105;DHT22;9179;50.968;3.134;2024-02-26T05:42:07;7.40;99.90
18105;DHT22;9179;50.968;3.134;2024-02-26T05:44:35;7.40;99.90
18105;DHT22;9179;50.968;3.134;2024-02-26T05:47:04;7.40;99.90
18105;DHT22;9179;50.968;3.134;2024-02-26T05:49:31;7.40;99.90
18105;DHT22;9179;50.968;3.134;2024-02-26T05:51:59;7.30;99.90
18105;DHT22;9179;50.968;3.134;2024-02-26T05:54:26;7.30;99.90
18105;DHT22;9179;50.968;3.134;2024-02-26T05:56:53;7.30;99.90
18105;DHT22;9179;50.968;3.134;2024-02-26T05:59:19;7.30;99.90
18105;DHT22;9179;50.968;3.134;2024-02-26T06:01:46;7.30;99.90
18105;DHT22;9179;50.968;3.134;2024-02-26T06:04:15;7.30;99.90
18105;DHT22;9179;50.968;3.134;2024-02-26T06:06:43;7.40;99.90
18105;DHT22;9179;50.968;3.134;2024-02-26T06:09:11;7.40;99.90
18105;DHT22;9179;50.968;3.134;2024-02-26T06:11:38;7.30;99.90
18105;DHT22;9179;50.968;3.134;2024-02-26T06:14:05;7.20;99.90
18105;DHT22;9179;50.968;3.134;2024-02-26T06:16:32;7.20;99.90
18105;DHT22;9179;50.968;3.134;2024-02-26T06:18:59;7.20;99.90
18105;DHT22;9179;50.968;3.134;2024-02-26T06:21:28;7.20;99.90
18105;DHT22;9179;50.968;3.134;2024-02-26T06:23:55;7.30;99.90
18105;DHT22;9179;50.968;3.134;2024-02-26T06:26:22;7.40;99.90
18105;DHT22;9179;50.968;3.134;2024-02-26T06:28:48;7.40;99.90
18105;DHT22;9179;50.968;3.134;2024-02-26T06:31:18;7.50;99.90
18105;DHT22;9179;50.968;3.134;2024-02-26T06:33:44;7.60;99.90
18105;DHT22;9179;50.968;3.134;2024-02-26T06:36:11;7.50;99.90
18105;DHT22;9179;50.968;3.134;2024-02-26T06:38:40;7.60;99.90
18105;DHT22;9179;50.968;3.134;2024-02-26T06:41:07;7.60;99.90
18105;DHT22;9179;50.968;3.134;2024-02-26T06:43:34;7.70;99.90
18105;DHT22;9179;50.968;3.134;2024-02-26T06:46:01;7.60;99.90
18105;DHT22;9179;50.968;3.134;2024-02-26T06:48:28;7.60;99.90
18105;DHT22;9179;50.968;3.134;2024-02-26T06:50:54;7.50;99.90
18105;DHT22;9179;50.968;3.134;2024-02-26T06:53:21;7.60;99.90
18105;DHT22;9179;50.968;3.134;2024-02-26T06:55:50;7.60;99.90
18105;DHT22;9179;50.968;3.134;2024-02-26T06:58:16;7.60;99.90
18105;DHT22;9179;50.968;3.134;2024-02-26T07:00:44;7.50;99.90
18105;DHT22;9179;50.968;3.134;2024-02-26T07:03:11;7.60;99.90
18105;DHT22;9179;50.968;3.134;2024-02-26T07:05:39;7.60;99.90
18105;DHT22;9179;50.968;3.134;2024-02-26T07:08:07;7.70;99.90
18105;DHT22;9179;50.968;3.134;2024-02-26T07:10:33;7.70;99.90
18105;DHT22;9179;50.968;3.134;2024-02-26T07:13:02;7.50;99.90
18105;DHT22;9179;50.968;3.134;2024-02-26T07:15:29;7.50;99.90
18105;DHT22;9179;50.968;3.134;2024-02-26T07:17:56;7.40;99.90
18105;DHT22;9179;50.968;3.134;2024-02-26T07:20:28;7.50;99.90
18105;DHT22;9179;50.968;3.134;2024-02-26T07:22:55;7.30;99.90
18105;DHT22;9179;50.968;3.134;2024-02-26T07:25:22;7.30;99.90
18105;DHT22;9179;50.968;3.134;2024-02-26T07:27:49;7.40;99.90
18105;DHT22;9179;50.968;3.134;2024-02-26T07:30:18;7.40;99.90
18105;DHT22;9179;50.968;3.134;2024-02-26T07:32:45;7.40;99.90
18105;DHT22;9179;50.968;3.134;2024-02-26T07:35:12;7.50;99.90
18105;DHT22;9179;50.968;3.134;2024-02-26T07:37:39;7.40;99.90
18105;DHT22;9179;50.968;3.134;2024-02-26T07:40:07;7.40;99.90
18105;DHT22;9179;50.968;3.134;2024-02-26T07:42:34;7.40;99.90
18105;DHT22;9179;50.968;3.134;2024-02-26T07:45:02;7.50;99.90
18105;DHT22;9179;50.968;3.134;2024-02-26T07:47:30;7.40;99.90
18105;DHT22;9179;50.968;3.134;2024-02-26T07:50:00;7.50;99.90
18105;DHT22;9179;50.968;3.134;2024-02-26T07:52:27;7.40;99.90
18105;DHT22;9179;50.968;3.134;2024-02-26T07:54:54;7.40;99.90
18105;DHT22;9179;50.968;3.134;2024-02-26T07:57:21;7.40;99.90
18105;DHT22;9179;50.968;3.134;2024-02-26T07:59:48;7.40;99.90
18105;DHT22;9179;50.968;3.134;2024-02-26T08:02:15;7.30;99.90
18105;DHT22;9179;50.968;3.134;2024-02-26T08:04:43;7.30;99.90
18105;DHT22;9179;50.968;3.134;2024-02-26T08:07:10;7.40;99.90
18105;DHT22;9179;50.968;3.134;2024-02-26T08:09:37;7.30;99.90
18105;DHT22;9179;50.968;3.134;2024-02-26T08:12:05;7.20;99.90
18105;DHT22;9179;50.968;3.134;2024-02-26T08:14:32;7.20;99.90
18105;DHT22;9179;50.968;3.134;2024-02-26T08:16:59;7.10;99.90
18105;DHT22;9179;50.968;3.134;2024-02-26T08:19:27;7.10;99.90
18105;DHT22;9179;50.968;3.134;2024-02-26T08:21:55;7.10;99.90
18105;DHT22;9179;50.968;3.134;2024-02-26T08:24:23;7.00;99.90
18105;DHT22;9179;50.968;3.134;2024-02-26T08:26:50;7.00;99.90
18105;DHT22;9179;50.968;3.134;2024-02-26T08:29:17;6.90;99.90
18105;DHT22;9179;50.968;3.134;2024-02-26T08:31:43;7.00;99.90
18105;DHT22;9179;50.968;3.134;2024-02-26T08:34:10;6.90;99.90
18105;DHT22;9179;50.968;3.134;2024-02-26T08:36:37;6.90;99.90
18105;DHT22;9179;50.968;3.134;2024-02-26T08:39:05;6.90;99.90
18105;DHT22;9179;50.968;3.134;2024-02-26T08:41:34;6.80;99.90
18105;DHT22;9179;50.968;3.134;2024-02-26T08:44:01;6.70;99.90
18105;DHT22;9179;50.968;3.134;2024-02-26T08:46:28;6.70;99.90
18105;DHT22;9179;50.968;3.134;2024-02-26T08:48:55;6.80;99.90
18105;DHT22;9179;50.968;3.134;2024-02-26T08:51:22;6.80;99.90
18105;DHT22;9179;50.968;3.134;2024-02-26T08:53:49;6.80;99.90
18105;DHT22;9179;50.968;3.134;2024-02-26T08:56:18;6.60;99.90
18105;DHT22;9179;50.968;3.134;2024-02-26T08:58:45;6.70;99.90
18105;DHT22;9179;50.968;3.134;2024-02-26T09:01:14;6.70;99.90
18105;DHT22;9179;50.968;3.134;2024-02-26T09:03:41;6.60;99.90
18105;DHT22;9179;50.968;3.134;2024-02-26T09:06:08;6.60;99.90
18105;DHT22;9179;50.968;3.134;2024-02-26T09:08:37;6.60;99.90
18105;DHT22;9179;50.968;3.134;2024-02-26T09:11:04;6.60;99.90
18105;DHT22;9179;50.968;3.134;2024-02-26T09:13:33;6.60;99.90
18105;DHT22;9179;50.968;3.134;2024-02-26T09:16:00;6.70;99.90
18105;DHT22;9179;50.968;3.134;2024-02-26T09:18:26;6.70;99.90
18105;DHT22;9179;50.968;3.134;2024-02-26T09:20:54;6.60;99.90
18105;DHT22;9179;50.968;3.134;2024-02-26T09:23:21;6.60;99.90
18105;DHT22;9179;50.968;3.134;2024-02-26T09:25:48;6.70;99.90
18105;DHT22;9179;50.968;3.134;2024-02-26T09:28:15;6.80;99.90
18105;DHT22;9179;50.968;3.134;2024-02-26T09:30:44;6.80;99.90
18105;DHT22;9179;50.968;3.134;2024-02-26T09:33:11;6.80;99.90
18105;DHT22;9179;50.968;3.134;2024-02-26T09:35:38;6.70;99.90
18105;DHT22;9179;50.968;3.134;2024-02-26T09:38:05;6.70;99.90
18105;DHT22;9179;50.968;3.134;2024-02-26T09:40:32;6.60;99.90
18105;DHT22;9179;50.968;3.134;2024-02-26T09:43:00;6.70;99.90
18105;DHT22;9179;50.968;3.134;2024-02-26T09:45:28;6.60;99.90
18105;DHT22;9179;50.968;3.134;2024-02-26T09:47:57;6.70;99.90
18105;DHT22;9179;50.968;3.134;2024-02-26T09:50:24;6.70;99.90
18105;DHT22;9179;50.968;3.134;2024-02-26T09:52:52;6.90;99.90
18105;DHT22;9179;50.968;3.134;2024-02-26T09:55:19;6.80;99.90
18105;DHT22;9179;50.968;3.134;2024-02-26T09:57:47;6.70;99.90
18105;DHT22;9179;50.968;3.134;2024-02-26T10:00:17;6.60;99.90
18105;DHT22;9179;50.968;3.134;2024-02-26T10:02:46;6.70;99.90
18105;DHT22;9179;50.968;3.134;2024-02-26T10:05:17;6.60;99.90
18105;DHT22;9179;50.968;3.134;2024-02-26T10:07:45;6.70;99.90
18105;DHT22;9179;50.968;3.134;2024-02-26T10:10:13;6.70;99.90
18105;DHT22;9179;50.968;3.134;2024-02-26T10:12:40;6.70;99.90
18105;DHT22;9179;50.968;3.134;2024-02-26T10:15:08;6.80;99.90
18105;DHT22;9179;50.968;3.134;2024-02-26T10:17:35;6.80;99.90
18105;DHT22;9179;50.968;3.134;2024-02-26T10:20:22;6.70;99.90
18105;DHT22;9179;50.968;3.134;2024-02-26T10:22:51;6.80;99.90
18105;DHT22;9179;50.968;3.134;2024-02-26T10:25:18;6.70;99.90
18105;DHT22;9179;50.968;3.134;2024-02-26T10:27:45;6.70;99.90
18105;DHT22;9179;50.968;3.134;2024-02-26T10:30:16;6.80;99.90
18105;DHT22;9179;50.968;3.134;2024-02-26T10:32:45;6.80;99.90
18105;DHT22;9179;50.968;3.134;2024-02-26T10:35:12;6.70;99.90
18105;DHT22;9179;50.968;3.134;2024-02-26T10:37:41;6.80;99.90
18105;DHT22;9179;50.968;3.134;2024-02-26T10:40:10;7.10;99.90
18105;DHT22;9179;50.968;3.134;2024-02-26T10:42:37;7.00;99.90
18105;DHT22;9179;50.968;3.134;2024-02-26T10:45:05;6.90;99.90
18105;DHT22;9179;50.968;3.134;2024-02-26T10:47:32;6.80;99.90
18105;DHT22;9179;50.968;3.134;2024-02-26T10:50:01;6.90;99.90
18105;DHT22;9179;50.968;3.134;2024-02-26T10:52:31;6.90;99.90
18105;DHT22;9179;50.968;3.134;2024-02-26T10:55:01;6.80;99.90
18105;DHT22;9179;50.968;3.134;2024-02-26T10:57:32;6.90;99.90
18105;DHT22;9179;50.968;3.134;2024-02-26T11:00:00;6.80;99.90
18105;DHT22;9179;50.968;3.134;2024-02-26T11:02:32;7.00;99.90
18105;DHT22;9179;50.968;3.134;2024-02-26T11:05:00;7.00;99.90
18105;DHT22;9179;50.968;3.134;2024-02-26T11:07:30;6.90;99.90
18105;DHT22;9179;50.968;3.134;2024-02-26T11:09:58;7.00;99.90
18105;DHT22;9179;50.968;3.134;2024-02-26T11:12:27;7.00;99.90
18105;DHT22;9179;50.968;3.134;2024-02-26T11:14:56;7.00;99.90
18105;DHT22;9179;50.968;3.134;2024-02-26T11:17:26;7.00;99.90
18105;DHT22;9179;50.968;3.134;2024-02-26T11:19:55;7.00;99.90
18105;DHT22;9179;50.968;3.134;2024-02-26T11:22:23;6.90;99.90
18105;DHT22;9179;50.968;3.134;2024-02-26T11:24:52;7.00;99.90
18105;DHT22;9179;50.968;3.134;2024-02-26T11:27:23;7.00;99.90
18105;DHT22;9179;50.968;3.134;2024-02-26T11:29:54;7.10;99.90
18105;DHT22;9179;50.968;3.134;2024-02-26T11:32:23;6.90;99.90
18105;DHT22;9179;50.968;3.134;2024-02-26T11:34:51;6.90;99.90
18105;DHT22;9179;50.968;3.134;2024-02-26T11:37:20;7.00;99.90
18105;DHT22;9179;50.968;3.134;2024-02-26T11:39:47;7.00;99.90
18105;DHT22;9179;50.968;3.134;2024-02-26T11:42:15;7.10;99.90
18105;DHT22;9179;50.968;3.134;2024-02-26T11:44:42;7.10;99.90
18105;DHT22;9179;50.968;3.134;2024-02-26T11:47:18;7.00;99.90
18105;DHT22;9179;50.968;3.134;2024-02-26T11:49:45;7.00;99.90
18105;DHT22;9179;50.968;3.134;2024-02-26T11:52:14;7.00;99.90
18105;DHT22;9179;50.968;3.134;2024-02-26T11:54:45;7.00;99.90
18105;DHT22;9179;50.968;3.134;2024-02-26T11:57:26;7.10;99.90
18105;DHT22;9179;50.968;3.134;2024-02-26T11:59:54;7.30;99.90
18105;DHT22;9179;50.968;3.134;2024-02-26T12:02:43;7.20;99.90
18105;DHT22;9179;50.968;3.134;2024-02-26T12:05:12;7.20;99.90
18105;DHT22;9179;50.968;3.134;2024-02-26T12:07:40;7.30;99.90
18105;DHT22;9179;50.968;3.134;2024-02-26T12:10:23;7.10;99.90
18105;DHT22;9179;50.968;3.134;2024-02-26T12:12:54;7.10;99.90
18105;DHT22;9179;50.968;3.134;2024-02-26T12:15:23;7.20;99.90
18105;DHT22;9179;50.968;3.134;2024-02-26T12:17:53;7.20;99.90
18105;DHT22;9179;50.968;3.134;2024-02-26T12:20:20;7.00;99.90
18105;DHT22;9179;50.968;3.134;2024-02-26T12:22:49;7.20;99.90
18105;DHT22;9179;50.968;3.134;2024-02-26T12:25:22;7.10;99.90
18105;DHT22;9179;50.968;3.134;2024-02-26T12:27:50;7.10;99.90
18105;DHT22;9179;50.968;3.134;2024-02-26T12:30:17;7.10;99.90
18105;DHT22;9179;50.968;3.134;2024-02-26T12:32:44;7.20;99.90
18105;DHT22;9179;50.968;3.134;2024-02-26T12:35:14;7.20;99.90
18105;DHT22;9179;50.968;3.134;2024-02-26T12:37:41;7.20;99.90
18105;DHT22;9179;50.968;3.134;2024-02-26T12:40:09;7.10;99.90
18105;DHT22;9179;50.968;3.134;2024-02-26T12:42:37;7.10;99.90
18105;DHT22;9179;50.968;3.134;2024-02-26T12:45:07;7.20;99.90
18105;DHT22;9179;50.968;3.134;2024-02-26T12:47:38;7.20;99.90
18105;DHT22;9179;50.968;3.134;2024-02-26T12:50:06;7.20;99.90
18105;DHT22;9179;50.968;3.134;2024-02-26T12:52:35;7.20;99.90
18105;DHT22;9179;50.968;3.134;2024-02-26T12:55:04;7.30;99.90
18105;DHT22;9179;50.968;3.134;2024-02-26T12:57:34;7.30;99.90
18105;DHT22;9179;50.968;3.134;2024-02-26T13:00:02;7.50;99.90
18105;DHT22;9179;50.968;3.134;2024-02-26T13:02:30;7.50;99.90
18105;DHT22;9179;50.968;3.134;2024-02-26T13:04:57;7.50;99.90
18105;DHT22;9179;50.968;3.134;2024-02-26T13:07:26;7.50;99.90
18105;DHT22;9179;50.968;3.134;2024-02-26T13:09:55;7.40;99.90
18105;DHT22;9179;50.968;3.134;2024-02-26T13:12:22;7.40;99.90
18105;DHT22;9179;50.968;3.134;2024-02-26T13:14:58;7.50;99.90
18105;DHT22;9179;50.968;3.134;2024-02-26T13:17:26;7.50;99.90
18105;DHT22;9179;50.968;3.134;2024-02-26T13:19:53;7.40;99.90
18105;DHT22;9179;50.968;3.134;2024-02-26T13:22:21;7.50;99.90
18105;DHT22;9179;50.968;3.134;2024-02-26T13:24:55;7.40;99.90
18105;DHT22;9179;50.968;3.134;2024-02-26T13:27:22;7.40;99.90
18105;DHT22;9179;50.968;3.134;2024-02-26T13:30:02;7.30;99.90
18105;DHT22;9179;50.968;3.134;2024-02-26T13:32:32;7.30;99.90
18105;DHT22;9179;50.968;3.134;2024-02-26T13:35:05;7.40;99.90
18105;DHT22;9179;50.968;3.134;2024-02-26T13:37:33;7.30;99.90
18105;DHT22;9179;50.968;3.134;2024-02-26T13:40:04;7.40;99.90
18105;DHT22;9179;50.968;3.134;2024-02-26T13:42:31;7.40;99.90
18105;DHT22;9179;50.968;3.134;2024-02-26T13:44:58;7.40;99.90
18105;DHT22;9179;50.968;3.134;2024-02-26T13:47:25;7.40;99.90
18105;DHT22;9179;50.968;3.134;2024-02-26T13:49:52;7.50;99.90
18105;DHT22;9179;50.968;3.134;2024-02-26T13:52:19;7.60;99.90
18105;DHT22;9179;50.968;3.134;2024-02-26T13:54:46;7.60;99.90
18105;DHT22;9179;50.968;3.134;2024-02-26T13:57:15;7.50;99.90
18105;DHT22;9179;50.968;3.134;2024-02-26T13:59:43;7.60;99.90
18105;DHT22;9179;50.968;3.134;2024-02-26T14:02:10;7.60;99.90
18105;DHT22;9179;50.968;3.134;2024-02-26T14:04:37;7.50;99.90
18105;DHT22;9179;50.968;3.134;2024-02-26T14:07:04;7.70;99.90
18105;DHT22;9179;50.968;3.134;2024-02-26T14:09:32;7.50;99.90
18105;DHT22;9179;50.968;3.134;2024-02-26T14:11:59;7.50;99.90
18105;DHT22;9179;50.968;3.134;2024-02-26T14:14:28;7.50;99.90
18105;DHT22;9179;50.968;3.134;2024-02-26T14:16:58;7.60;99.90
18105;DHT22;9179;50.968;3.134;2024-02-26T14:19:25;7.50;99.90
18105;DHT22;9179;50.968;3.134;2024-02-26T14:21:52;7.60;99.90
18105;DHT22;9179;50.968;3.134;2024-02-26T14:24:19;7.60;99.90
18105;DHT22;9179;50.968;3.134;2024-02-26T14:26:46;7.40;99.90
18105;DHT22;9179;50.968;3.134;2024-02-26T14:29:13;7.50;99.90
18105;DHT22;9179;50.968;3.134;2024-02-26T14:31:41;7.60;99.90
18105;DHT22;9179;50.968;3.134;2024-02-26T14:34:08;7.60;99.90
18105;DHT22;9179;50.968;3.134;2024-02-26T14:36:35;7.80;99.90
18105;DHT22;9179;50.968;3.134;2024-02-26T14:39:02;7.80;99.90
18105;DHT22;9179;50.968;3.134;2024-02-26T14:41:29;7.80;99.90
18105;DHT22;9179;50.968;3.134;2024-02-26T14:43:56;7.70;99.90
18105;DHT22;9179;50.968;3.134;2024-02-26T14:46:23;7.70;99.90
18105;DHT22;9179;50.968;3.134;2024-02-26T14:48:52;7.80;99.90
18105;DHT22;9179;50.968;3.134;2024-02-26T14:51:19;7.80;99.90
18105;DHT22;9179;50.968;3.134;2024-02-26T14:53:45;7.80;99.90
18105;DHT22;9179;50.968;3.134;2024-02-26T14:56:12;7.80;99.90
18105;DHT22;9179;50.968;3.134;2024-02-26T14:58:40;7.70;99.90
18105;DHT22;9179;50.968;3.134;2024-02-26T15:01:07;7.80;99.90
18105;DHT22;9179;50.968;3.134;2024-02-26T15:03:34;7.70;99.90
18105;DHT22;9179;50.968;3.134;2024-02-26T15:06:03;7.60;99.90
18105;DHT22;9179;50.968;3.134;2024-02-26T15:08:30;7.70;99.90
18105;DHT22;9179;50.968;3.134;2024-02-26T15:10:58;7.60;99.90
18105;DHT22;9179;50.968;3.134;2024-02-26T15:13:25;7.60;99.90
18105;DHT22;9179;50.968;3.134;2024-02-26T15:15:51;7.70;99.90
18105;DHT22;9179;50.968;3.134;2024-02-26T15:18:18;7.80;99.90
18105;DHT22;9179;50.968;3.134;2024-02-26T15:20:46;7.80;99.90
18105;DHT22;9179;50.968;3.134;2024-02-26T15:23:14;7.80;99.90
18105;DHT22;9179;50.968;3.134;2024-02-26T15:25:43;7.80;99.90
18105;DHT22;9179;50.968;3.134;2024-02-26T15:28:10;7.70;99.90
18105;DHT22;9179;50.968;3.134;2024-02-26T15:30:39;7.70;99.90
18105;DHT22;9179;50.968;3.134;2024-02-26T15:33:06;7.70;99.90
18105;DHT22;9179;50.968;3.134;2024-02-26T15:35:34;7.50;99.90
18105;DHT22;9179;50.968;3.134;2024-02-26T15:38:02;7.50;99.90
18105;DHT22;9179;50.968;3.134;2024-02-26T15:40:31;7.50;99.90
18105;DHT22;9179;50.968;3.134;2024-02-26T15:42:58;7.40;99.90
18105;DHT22;9179;50.968;3.134;2024-02-26T15:45:24;7.40;99.90
18105;DHT22;9179;50.968;3.134;2024-02-26T15:47:52;7.60;99.90
18105;DHT22;9179;50.968;3.134;2024-02-26T15:50:19;7.60;99.90
18105;DHT22;9179;50.968;3.134;2024-02-26T15:52:46;7.70;99.90
18105;DHT22;9179;50.968;3.134;2024-02-26T15:55:13;7.80;99.90
18105;DHT22;9179;50.968;3.134;2024-02-26T15:57:42;7.80;99.90
18105;DHT22;9179;50.968;3.134;2024-02-26T16:00:10;7.90;99.90
18105;DHT22;9179;50.968;3.134;2024-02-26T16:02:37;7.90;99.90
18105;DHT22;9179;50.968;3.134;2024-02-26T16:05:05;8.00;99.90